Time,TemperatureF,DewpointF,PressureIn,WindDirection,WindDirectionDegrees,WindSpeedMPH,WindSpeedGustMPH,Humidity,HourlyPrecipIn,Conditions,Clouds,dailyrainin,SoftwareType,DateUTC
2013-01-01 00:00:00,38.1,33.4,30.12,NNE,22,0.0,0.0,83,0.00,,,0.00,WUHU21623XXSP,2013-01-01 05:00:00,
2013-01-01 00:01:00,38.1,33.4,30.12,NNE,22,0.0,0.0,83,0.00,,,0.00,WUHU21623XXSP,2013-01-01 05:01:00,
2013-01-01 00:02:00,38.1,33.4,30.12,NNE,22,0.0,0.0,83,0.00,,,0.00,WUHU21623XXSP,2013-01-01 05:02:00,
2013-01-01 00:14:00,37.9,33.2,30.12,South,180,0.0,0.0,83,0.00,,,0.00,WUHU21623XXSP,2013-01-01 05:14:00,
2013-01-01 00:19:00,37.9,33.5,30.12,ESE,112,0.0,0.0,84,0.00,,,0.00,WUHU21623XXSP,2013-01-01 05:19:00,
2013-01-01 00:24:00,37.9,33.5,30.12,SSE,157,0.0,0.0,84,0.00,,,0.00,WUHU21623XXSP,2013-01-01 05:24:00,
2013-01-01 00:29:00,37.9,33.5,30.11,SE,135,0.0,0.0,84,0.00,,,0.00,WUHU21623XXSP,2013-01-01 05:29:00,
2013-01-01 00:34:00,37.9,33.5,30.10,SE,135,0.0,0.0,84,0.00,,,0.00,WUHU21623XXSP,2013-01-01 05:34:00,
2013-01-01 00:39:00,37.9,33.5,30.10,SE,135,0.0,0.0,84,0.00,,,0.00,WUHU21623XXSP,2013-01-01 05:39:00,
2013-01-01 00:44:00,37.9,33.5,30.10,SSE,157,0.0,0.0,84,0.00,,,0.00,WUHU21623XXSP,2013-01-01 05:44:00,
2013-01-01 00:49:00,38.1,33.7,30.09,ESE,112,0.0,0.0,84,0.00,,,0.00,WUHU21623XXSP,2013-01-01 05:49:00,
2013-01-01 00:54:00,38.1,33.7,30.10,ESE,112,0.0,0.0,84,0.00,,,0.00,WUHU21623XXSP,2013-01-01 05:54:00,
2013-01-01 00:59:00,38.1,33.7,30.09,ESE,112,0.0,1.7,84,0.00,,,0.00,WUHU21623XXSP,2013-01-01 05:59:00,
2013-01-01 01:04:00,38.3,34.2,30.09,ESE,112,0.0,1.7,85,0.00,,,0.00,WUHU21623XXSP,2013-01-01 06:04:00,
2013-01-01 01:09:00,38.3,34.2,30.08,East,90,2.1,2.4,85,0.00,,,0.00,WUHU21623XXSP,2013-01-01 06:09:00,
2013-01-01 01:14:00,38.3,34.2,30.08,SSE,157,0.0,2.4,85,0.00,,,0.00,WUHU21623XXSP,2013-01-01 06:14:00,
2013-01-01 01:19:00,38.3,34.2,30.07,ESE,112,0.0,2.4,85,0.00,,,0.00,WUHU21623XXSP,2013-01-01 06:19:00,
2013-01-01 01:24:00,38.3,34.2,30.09,NW,315,0.0,0.0,85,0.00,,,0.00,WUHU21623XXSP,2013-01-01 06:24:00,
2013-01-01 01:29:00,38.3,34.4,30.08,East,90,0.0,0.0,86,0.00,,,0.00,WUHU21623XXSP,2013-01-01 06:29:00,
2013-01-01 01:34:00,38.1,34.3,30.08,SE,135,0.0,0.0,86,0.00,,,0.00,WUHU21623XXSP,2013-01-01 06:34:00,
2013-01-01 01:39:00,38.1,34.3,30.08,South,180,0.0,0.0,86,0.00,,,0.00,WUHU21623XXSP,2013-01-01 06:39:00,
2013-01-01 01:44:00,38.1,34.3,30.08,SSE,157,0.0,0.0,86,0.00,,,0.00,WUHU21623XXSP,2013-01-01 06:44:00,
2013-01-01 01:49:00,38.1,34.6,30.08,ESE,112,0.0,0.0,87,0.00,,,0.00,WUHU21623XXSP,2013-01-01 06:49:00,
2013-01-01 01:54:00,38.1,34.6,30.08,East,90,0.0,0.0,87,0.00,,,0.00,WUHU21623XXSP,2013-01-01 06:54:00,
2013-01-01 01:59:00,38.1,34.6,30.09,East,90,0.0,0.0,87,0.00,,,0.00,WUHU21623XXSP,2013-01-01 06:59:00,
2013-01-01 02:04:00,38.3,34.7,30.09,NE,45,0.0,0.0,87,0.00,,,0.00,WUHU21623XXSP,2013-01-01 07:04:00,
2013-01-01 02:09:00,38.3,34.7,30.09,NE,45,0.0,0.0,87,0.00,,,0.00,WUHU21623XXSP,2013-01-01 07:09:00,
2013-01-01 02:14:00,38.3,34.7,30.09,NE,45,0.0,0.0,87,0.00,,,0.00,WUHU21623XXSP,2013-01-01 07:14:00,
2013-01-01 02:19:00,38.3,34.7,30.09,NNE,22,0.0,0.0,87,0.00,,,0.00,WUHU21623XXSP,2013-01-01 07:19:00,
2013-01-01 02:24:00,38.3,34.7,30.09,ENE,67,0.0,0.0,87,0.00,,,0.00,WUHU21623XXSP,2013-01-01 07:24:00,
2013-01-01 02:29:00,38.3,34.7,30.09,SE,135,0.0,0.0,87,0.00,,,0.00,WUHU21623XXSP,2013-01-01 07:29:00,
2013-01-01 02:34:00,38.3,34.7,30.09,NE,45,0.0,0.0,87,0.00,,,0.00,WUHU21623XXSP,2013-01-01 07:34:00,
2013-01-01 02:39:00,38.3,34.7,30.09,SSE,157,0.0,0.0,87,0.00,,,0.00,WUHU21623XXSP,2013-01-01 07:39:00,
2013-01-01 02:44:00,38.5,34.9,30.09,SSE,157,0.0,0.0,87,0.00,,,0.00,WUHU21623XXSP,2013-01-01 07:44:00,
2013-01-01 02:49:00,38.5,34.9,30.09,ESE,112,0.0,0.0,87,0.00,,,0.00,WUHU21623XXSP,2013-01-01 07:49:00,
2013-01-01 02:54:00,38.5,34.9,30.08,SSE,157,1.7,1.9,87,0.00,,,0.00,WUHU21623XXSP,2013-01-01 07:54:00,
2013-01-01 02:59:00,38.5,34.9,30.08,SW,225,1.4,1.9,87,0.00,,,0.00,WUHU21623XXSP,2013-01-01 07:59:00,
2013-01-01 03:04:00,38.5,34.9,30.08,ENE,67,0.0,1.9,87,0.00,,,0.00,WUHU21623XXSP,2013-01-01 08:04:00,
2013-01-01 03:09:00,38.5,34.9,30.09,ENE,67,0.0,1.7,87,0.00,,,0.00,WUHU21623XXSP,2013-01-01 08:09:00,
2013-01-01 03:14:00,38.5,34.9,30.09,NNE,22,0.0,0.0,87,0.00,,,0.00,WUHU21623XXSP,2013-01-01 08:14:00,
2013-01-01 03:19:00,38.5,34.9,30.08,East,90,1.2,1.3,87,0.02,,,0.02,WUHU21623XXSP,2013-01-01 08:19:00,
2013-01-01 03:24:00,38.3,35.0,30.07,East,90,0.0,1.9,88,0.02,,,0.02,WUHU21623XXSP,2013-01-01 08:24:00,
2013-01-01 03:29:00,38.3,35.0,30.09,NNW,337,0.0,1.9,88,0.02,,,0.02,WUHU21623XXSP,2013-01-01 08:29:00,
2013-01-01 03:34:00,38.3,35.0,30.09,NE,45,0.0,0.0,88,0.02,,,0.02,WUHU21623XXSP,2013-01-01 08:34:00,
2013-01-01 03:40:00,38.3,35.0,30.09,North,0,0.0,0.0,88,0.02,,,0.02,WUHU21623XXSP,2013-01-01 08:40:00,
2013-01-01 03:45:00,38.3,35.0,30.10,NW,315,0.0,0.0,88,0.02,,,0.02,WUHU21623XXSP,2013-01-01 08:45:00,
2013-01-01 03:50:00,38.3,35.0,30.10,NE,45,0.0,0.0,88,0.02,,,0.02,WUHU21623XXSP,2013-01-01 08:50:00,
2013-01-01 03:55:00,38.5,35.2,30.10,NE,45,0.0,0.0,88,0.02,,,0.02,WUHU21623XXSP,2013-01-01 08:55:00,
2013-01-01 04:00:00,38.3,35.0,30.11,West,270,0.0,0.0,88,0.02,,,0.02,WUHU21623XXSP,2013-01-01 09:00:00,
2013-01-01 04:05:00,38.5,35.2,30.12,NW,315,0.0,0.0,88,0.02,,,0.02,WUHU21623XXSP,2013-01-01 09:05:00,
2013-01-01 04:10:00,38.5,35.2,30.10,ESE,112,1.7,1.9,88,0.02,,,0.02,WUHU21623XXSP,2013-01-01 09:10:00,
2013-01-01 04:14:00,38.3,35.0,30.10,NW,315,0.0,1.9,88,0.04,,,0.04,WUHU21623XXSP,2013-01-01 09:14:00,
2013-01-01 04:20:00,38.3,35.0,30.11,NNW,337,0.0,1.9,88,0.02,,,0.04,WUHU21623XXSP,2013-01-01 09:20:00,
2013-01-01 04:25:00,38.3,35.0,30.12,NNW,337,0.0,0.0,88,0.02,,,0.04,WUHU21623XXSP,2013-01-01 09:25:00,
2013-01-01 04:29:00,38.3,35.0,30.11,NNW,337,0.0,0.0,88,0.08,,,0.10,WUHU21623XXSP,2013-01-01 09:29:00,
2013-01-01 04:34:00,38.3,35.0,30.11,NNW,337,0.0,0.0,88,0.08,,,0.10,WUHU21623XXSP,2013-01-01 09:34:00,
2013-01-01 04:39:00,38.3,35.0,30.12,NNW,337,0.0,0.0,88,0.08,,,0.10,WUHU21623XXSP,2013-01-01 09:39:00,
2013-01-01 04:45:00,38.5,35.2,30.11,SE,135,0.0,0.0,88,0.10,,,0.12,WUHU21623XXSP,2013-01-01 09:45:00,
2013-01-01 04:50:00,38.5,35.2,30.10,SSE,157,0.0,0.0,88,0.10,,,0.12,WUHU21623XXSP,2013-01-01 09:50:00,
2013-01-01 04:55:00,38.5,35.2,30.09,SE,135,0.0,0.0,88,0.12,,,0.14,WUHU21623XXSP,2013-01-01 09:55:00,
2013-01-01 05:00:00,38.5,35.2,30.08,SSE,157,2.1,2.4,88,0.12,,,0.14,WUHU21623XXSP,2013-01-01 10:00:00,
2013-01-01 05:05:00,38.5,35.2,30.08,SW,225,0.0,4.4,88,0.14,,,0.17,WUHU21623XXSP,2013-01-01 10:05:00,
2013-01-01 05:10:00,38.5,35.5,30.09,SE,135,2.6,4.4,89,0.14,,,0.17,WUHU21623XXSP,2013-01-01 10:10:00,
2013-01-01 05:15:00,38.5,35.5,30.09,NNE,22,0.0,3.0,89,0.14,,,0.19,WUHU21623XXSP,2013-01-01 10:15:00,
2013-01-01 05:20:00,38.7,35.7,30.09,North,0,0.0,3.0,89,0.17,,,0.21,WUHU21623XXSP,2013-01-01 10:20:00,
2013-01-01 05:25:00,38.8,35.9,30.09,NNE,22,0.0,0.0,89,0.17,,,0.21,WUHU21623XXSP,2013-01-01 10:25:00,
2013-01-01 05:30:00,38.8,35.9,30.10,SSE,157,1.7,1.9,89,0.13,,,0.23,WUHU21623XXSP,2013-01-01 10:30:00,
2013-01-01 05:35:00,38.8,35.9,30.09,SSE,157,0.0,1.9,89,0.13,,,0.23,WUHU21623XXSP,2013-01-01 10:35:00,
2013-01-01 05:40:00,38.8,35.9,30.09,ESE,112,0.0,1.9,89,0.15,,,0.25,WUHU21623XXSP,2013-01-01 10:40:00,
2013-01-01 05:45:00,38.7,35.7,30.10,ENE,67,0.0,0.0,89,0.15,,,0.28,WUHU21623XXSP,2013-01-01 10:45:00,
2013-01-01 05:50:00,38.5,35.5,30.10,ENE,67,0.0,0.0,89,0.15,,,0.28,WUHU21623XXSP,2013-01-01 10:50:00,
2013-01-01 05:55:00,38.7,35.7,30.10,ENE,67,0.0,0.0,89,0.15,,,0.30,WUHU21623XXSP,2013-01-01 10:55:00,
2013-01-01 06:00:00,38.5,35.5,30.10,North,0,0.0,0.0,89,0.15,,,0.30,WUHU21623XXSP,2013-01-01 11:00:00,
2013-01-01 06:05:00,38.5,35.5,30.11,NNW,337,0.0,0.0,89,0.15,,,0.32,WUHU21623XXSP,2013-01-01 11:05:00,
2013-01-01 06:10:00,38.5,35.5,30.11,NNW,337,0.0,0.0,89,0.15,,,0.32,WUHU21623XXSP,2013-01-01 11:10:00,
2013-01-01 06:15:00,38.5,35.5,30.11,North,0,0.0,0.0,89,0.13,,,0.32,WUHU21623XXSP,2013-01-01 11:15:00,
2013-01-01 06:20:00,38.5,35.5,30.11,ESE,112,0.0,0.0,89,0.11,,,0.32,WUHU21623XXSP,2013-01-01 11:20:00,
2013-01-01 06:25:00,38.5,35.5,30.11,ENE,67,0.0,0.0,89,0.11,,,0.32,WUHU21623XXSP,2013-01-01 11:25:00,
2013-01-01 06:30:00,38.5,35.5,30.11,North,0,0.0,0.0,89,0.09,,,0.32,WUHU21623XXSP,2013-01-01 11:30:00,
2013-01-01 06:35:00,38.7,35.7,30.11,SE,135,0.0,0.0,89,0.11,,,0.34,WUHU21623XXSP,2013-01-01 11:35:00,
2013-01-01 06:40:00,38.7,35.7,30.11,SE,135,0.0,0.0,89,0.11,,,0.36,WUHU21623XXSP,2013-01-01 11:40:00,
2013-01-01 06:45:00,38.8,35.9,30.11,NE,45,0.0,0.0,89,0.09,,,0.36,WUHU21623XXSP,2013-01-01 11:45:00,
2013-01-01 06:50:00,38.8,35.9,30.11,NE,45,0.0,0.0,89,0.09,,,0.36,WUHU21623XXSP,2013-01-01 11:50:00,
2013-01-01 06:55:00,38.8,35.9,30.11,NE,45,0.0,0.0,89,0.07,,,0.36,WUHU21623XXSP,2013-01-01 11:55:00,
2013-01-01 07:00:00,38.8,35.9,30.11,SE,135,0.0,0.0,89,0.07,,,0.36,WUHU21623XXSP,2013-01-01 12:00:00,
2013-01-01 07:05:00,38.8,35.9,30.10,ESE,112,0.0,0.0,89,0.07,,,0.39,WUHU21623XXSP,2013-01-01 12:05:00,
2013-01-01 07:10:00,38.8,35.9,30.10,ESE,112,0.0,0.0,89,0.07,,,0.39,WUHU21623XXSP,2013-01-01 12:10:00,
2013-01-01 07:15:00,38.8,35.9,30.11,ESE,112,0.0,0.0,89,0.07,,,0.39,WUHU21623XXSP,2013-01-01 12:15:00,
2013-01-01 07:20:00,38.8,35.9,30.11,SE,135,0.0,0.0,89,0.07,,,0.39,WUHU21623XXSP,2013-01-01 12:20:00,
2013-01-01 07:25:00,38.8,35.9,30.11,SE,135,0.0,0.0,89,0.07,,,0.39,WUHU21623XXSP,2013-01-01 12:25:00,
2013-01-01 07:30:00,38.8,35.9,30.11,SE,135,0.0,0.0,89,0.07,,,0.39,WUHU21623XXSP,2013-01-01 12:30:00,
2013-01-01 07:35:00,38.8,35.9,30.11,SE,135,0.0,0.0,89,0.04,,,0.39,WUHU21623XXSP,2013-01-01 12:35:00,
2013-01-01 07:40:00,39.0,36.0,30.12,SE,135,0.0,0.0,89,0.02,,,0.39,WUHU21623XXSP,2013-01-01 12:40:00,
2013-01-01 07:45:00,39.0,36.0,30.11,SE,135,0.0,0.0,89,0.02,,,0.39,WUHU21623XXSP,2013-01-01 12:45:00,
2013-01-01 07:50:00,39.0,36.0,30.11,SE,135,0.0,0.0,89,0.02,,,0.39,WUHU21623XXSP,2013-01-01 12:50:00,
2013-01-01 07:55:00,39.0,36.0,30.11,ESE,112,0.0,0.0,89,0.04,,,0.41,WUHU21623XXSP,2013-01-01 12:55:00,
2013-01-01 08:00:00,39.0,36.0,30.11,SE,135,0.0,0.0,89,0.04,,,0.41,WUHU21623XXSP,2013-01-01 13:00:00,
2013-01-01 08:05:00,39.0,36.0,30.11,SE,135,0.0,0.0,89,0.02,,,0.41,WUHU21623XXSP,2013-01-01 13:05:00,
2013-01-01 08:10:00,39.0,36.0,30.11,SE,135,0.0,0.0,89,0.02,,,0.41,WUHU21623XXSP,2013-01-01 13:10:00,
2013-01-01 08:15:00,39.0,36.0,30.10,East,90,0.0,0.0,89,0.02,,,0.41,WUHU21623XXSP,2013-01-01 13:15:00,
2013-01-01 08:20:00,39.0,36.0,30.10,SE,135,0.0,0.0,89,0.04,,,0.43,WUHU21623XXSP,2013-01-01 13:20:00,
2013-01-01 08:25:00,39.0,36.0,30.10,South,180,0.0,0.0,89,0.04,,,0.43,WUHU21623XXSP,2013-01-01 13:25:00,
2013-01-01 08:30:00,39.4,36.4,30.11,WNW,292,0.0,0.0,89,0.04,,,0.43,WUHU21623XXSP,2013-01-01 13:30:00,
2013-01-01 08:35:00,39.4,36.4,30.10,SSW,202,0.0,0.0,89,0.04,,,0.43,WUHU21623XXSP,2013-01-01 13:35:00,
2013-01-01 08:40:00,39.4,36.4,30.09,SSW,202,0.0,0.0,89,0.04,,,0.43,WUHU21623XXSP,2013-01-01 13:40:00,
2013-01-01 08:45:00,39.4,36.4,30.09,South,180,0.0,0.0,89,0.07,,,0.45,WUHU21623XXSP,2013-01-01 13:45:00,
2013-01-01 08:50:00,39.4,36.4,30.09,West,270,0.0,0.0,89,0.07,,,0.45,WUHU21623XXSP,2013-01-01 13:50:00,
2013-01-01 08:55:00,39.6,36.6,30.09,WSW,247,0.0,0.0,89,0.04,,,0.45,WUHU21623XXSP,2013-01-01 13:55:00,
2013-01-01 09:00:00,39.4,36.4,30.10,West,270,0.0,0.0,89,0.04,,,0.45,WUHU21623XXSP,2013-01-01 14:00:00,
2013-01-01 09:05:00,39.6,36.6,30.11,West,270,0.0,0.0,89,0.04,,,0.45,WUHU21623XXSP,2013-01-01 14:05:00,
2013-01-01 09:10:00,39.6,36.6,30.11,NW,315,0.0,0.0,89,0.07,,,0.47,WUHU21623XXSP,2013-01-01 14:10:00,
2013-01-01 09:15:00,39.6,36.6,30.11,West,270,0.0,0.0,89,0.07,,,0.47,WUHU21623XXSP,2013-01-01 14:15:00,
2013-01-01 09:20:00,39.6,36.6,30.11,WNW,292,0.0,0.0,89,0.04,,,0.47,WUHU21623XXSP,2013-01-01 14:20:00,
2013-01-01 09:25:00,39.7,36.7,30.11,SW,225,0.0,0.0,89,0.04,,,0.47,WUHU21623XXSP,2013-01-01 14:25:00,
2013-01-01 09:30:00,39.7,36.7,30.11,East,90,0.0,0.0,89,0.07,,,0.50,WUHU21623XXSP,2013-01-01 14:30:00,
2013-01-01 09:35:00,39.7,36.7,30.11,NE,45,0.0,0.0,89,0.07,,,0.50,WUHU21623XXSP,2013-01-01 14:35:00,
2013-01-01 09:40:00,39.9,36.9,30.09,SSE,157,0.0,0.0,89,0.09,,,0.52,WUHU21623XXSP,2013-01-01 14:40:00,
2013-01-01 09:45:00,39.9,36.9,30.09,SSE,157,0.0,0.0,89,0.09,,,0.54,WUHU21623XXSP,2013-01-01 14:45:00,
2013-01-01 09:50:00,39.9,36.9,30.09,SSW,202,0.0,0.0,89,0.09,,,0.54,WUHU21623XXSP,2013-01-01 14:50:00,
2013-01-01 09:55:00,39.9,36.9,30.08,East,90,0.0,0.0,89,0.09,,,0.54,WUHU21623XXSP,2013-01-01 14:55:00,
2013-01-01 10:00:00,39.9,36.9,30.07,ESE,112,0.0,0.0,89,0.09,,,0.54,WUHU21623XXSP,2013-01-01 15:00:00,
2013-01-01 10:05:00,39.9,36.9,30.07,South,180,0.0,0.0,89,0.09,,,0.54,WUHU21623XXSP,2013-01-01 15:05:00,
2013-01-01 10:10:00,40.1,37.1,30.06,ENE,67,0.0,0.0,89,0.09,,,0.56,WUHU21623XXSP,2013-01-01 15:10:00,
2013-01-01 10:15:00,40.3,37.3,30.06,SE,135,1.7,1.9,89,0.09,,,0.56,WUHU21623XXSP,2013-01-01 15:15:00,
2013-01-01 10:20:00,40.5,37.5,30.05,ESE,112,0.0,1.9,89,0.11,,,0.58,WUHU21623XXSP,2013-01-01 15:20:00,
2013-01-01 10:25:00,40.6,37.6,30.04,SW,225,2.1,2.4,89,0.11,,,0.58,WUHU21623XXSP,2013-01-01 15:25:00,
2013-01-01 10:30:00,40.6,37.6,30.03,SW,225,2.1,2.4,89,0.09,,,0.58,WUHU21623XXSP,2013-01-01 15:30:00,
2013-01-01 10:35:00,40.8,37.8,30.07,NW,315,3.8,5.7,89,0.07,,,0.58,WUHU21623XXSP,2013-01-01 15:35:00,
2013-01-01 10:40:00,40.8,37.8,30.07,NW,315,0.0,5.7,89,0.07,,,0.58,WUHU21623XXSP,2013-01-01 15:40:00,
2013-01-01 10:45:00,40.8,37.8,30.06,WNW,292,0.0,4.4,89,0.04,,,0.58,WUHU21623XXSP,2013-01-01 15:45:00,
2013-01-01 10:50:00,40.8,37.8,30.06,West,270,0.0,0.0,89,0.04,,,0.58,WUHU21623XXSP,2013-01-01 15:50:00,
2013-01-01 10:55:00,41.2,38.2,30.06,SSW,202,0.0,3.3,89,0.04,,,0.58,WUHU21623XXSP,2013-01-01 15:55:00,
2013-01-01 11:00:00,41.2,38.2,30.05,SSW,202,0.0,3.3,89,0.04,,,0.58,WUHU21623XXSP,2013-01-01 16:00:00,
2013-01-01 11:05:00,41.4,38.4,30.06,NNW,337,2.1,3.3,89,0.04,,,0.58,WUHU21623XXSP,2013-01-01 16:05:00,
2013-01-01 11:10:00,41.4,38.4,30.09,North,0,0.0,2.7,89,0.02,,,0.58,WUHU21623XXSP,2013-01-01 16:10:00,
2013-01-01 11:16:00,41.5,38.5,30.10,WNW,292,1.4,2.7,89,0.02,,,0.58,WUHU21623XXSP,2013-01-01 16:16:00,
2013-01-01 11:21:00,41.5,38.5,30.11,NNW,337,1.4,1.9,89,0.00,,,0.58,WUHU21623XXSP,2013-01-01 16:21:00,
2013-01-01 11:26:00,41.7,38.7,30.10,NW,315,1.7,15.5,89,0.00,,,0.58,WUHU21623XXSP,2013-01-01 16:26:00,
2013-01-01 11:30:00,41.5,38.5,30.09,North,0,0.0,15.5,89,0.00,,,0.58,WUHU21623XXSP,2013-01-01 16:30:00,
2013-01-01 11:35:00,41.5,38.5,30.08,ESE,112,1.4,1.9,89,0.00,,,0.58,WUHU21623XXSP,2013-01-01 16:35:00,
2013-01-01 11:40:00,41.5,38.5,30.07,SSW,202,0.0,1.7,89,0.00,,,0.58,WUHU21623XXSP,2013-01-01 16:40:00,
2013-01-01 11:46:00,41.5,38.5,30.07,South,180,0.0,1.7,89,0.02,,,0.61,WUHU21623XXSP,2013-01-01 16:46:00,
2013-01-01 11:50:00,41.9,38.9,30.07,North,0,0.0,0.0,89,0.02,,,0.61,WUHU21623XXSP,2013-01-01 16:50:00,
2013-01-01 11:56:00,41.7,38.7,30.07,NNE,22,0.0,0.0,89,0.02,,,0.61,WUHU21623XXSP,2013-01-01 16:56:00,
2013-01-01 12:01:00,41.9,38.9,30.07,ESE,112,0.0,0.0,89,0.02,,,0.61,WUHU21623XXSP,2013-01-01 17:01:00,
2013-01-01 12:06:00,42.1,39.1,30.06,SSW,202,0.0,0.0,89,0.02,,,0.61,WUHU21623XXSP,2013-01-01 17:06:00,
2013-01-01 12:11:00,42.1,39.1,30.06,SSW,202,0.0,0.0,89,0.04,,,0.63,WUHU21623XXSP,2013-01-01 17:11:00,
2013-01-01 12:16:00,42.3,39.3,30.05,SE,135,0.0,0.0,89,0.04,,,0.63,WUHU21623XXSP,2013-01-01 17:16:00,
2013-01-01 12:21:00,42.4,39.4,30.05,SE,135,1.7,1.9,89,0.04,,,0.62,WUHU21623XXSP,2013-01-01 17:21:00,
2013-01-01 12:26:00,42.4,39.4,30.05,South,180,1.4,1.9,89,0.04,,,0.62,WUHU21623XXSP,2013-01-01 17:26:00,
2013-01-01 12:31:00,42.6,39.6,30.04,South,180,0.0,1.9,89,0.04,,,0.62,WUHU21623XXSP,2013-01-01 17:31:00,
2013-01-01 12:36:00,42.6,39.6,30.04,SSE,157,0.0,2.7,89,0.04,,,0.62,WUHU21623XXSP,2013-01-01 17:36:00,
2013-01-01 12:41:00,43.0,40.0,30.03,WSW,247,3.3,3.8,89,0.04,,,0.62,WUHU21623XXSP,2013-01-01 17:41:00,
2013-01-01 12:46:00,43.2,40.2,30.02,SW,225,0.0,3.8,89,0.04,,,0.64,WUHU21623XXSP,2013-01-01 17:46:00,
2013-01-01 12:51:00,43.3,40.3,30.02,SSW,202,1.7,3.8,89,0.04,,,0.64,WUHU21623XXSP,2013-01-01 17:51:00,
2013-01-01 12:56:00,43.3,40.3,30.02,SE,135,1.7,3.0,89,0.04,,,0.64,WUHU21623XXSP,2013-01-01 17:56:00,
2013-01-01 13:01:00,43.5,40.5,30.03,West,270,0.0,1.9,89,0.04,,,0.64,WUHU21623XXSP,2013-01-01 18:01:00,
2013-01-01 13:06:00,43.9,40.9,30.03,SW,225,0.0,1.9,89,0.04,,,0.64,WUHU21623XXSP,2013-01-01 18:06:00,
2013-01-01 13:11:00,43.9,40.9,30.03,SSW,202,0.0,1.7,89,0.02,,,0.64,WUHU21623XXSP,2013-01-01 18:11:00,
2013-01-01 13:16:00,44.2,41.2,30.02,SSW,202,1.7,1.9,89,0.02,,,0.64,WUHU21623XXSP,2013-01-01 18:16:00,
2013-01-01 13:21:00,44.4,41.4,30.01,SSW,202,0.0,1.9,89,0.04,,,0.66,WUHU21623XXSP,2013-01-01 18:21:00,
2013-01-01 13:26:00,44.8,41.8,30.01,SE,135,1.4,1.9,89,0.04,,,0.66,WUHU21623XXSP,2013-01-01 18:26:00,
2013-01-01 13:31:00,44.8,41.8,30.01,SSW,202,2.9,5.4,89,0.04,,,0.66,WUHU21623XXSP,2013-01-01 18:31:00,
2013-01-01 13:36:00,45.0,42.0,30.00,SSE,157,2.9,5.4,89,0.04,,,0.66,WUHU21623XXSP,2013-01-01 18:36:00,
2013-01-01 13:41:00,45.1,42.1,30.00,SSE,157,0.0,3.3,89,0.04,,,0.66,WUHU21623XXSP,2013-01-01 18:41:00,
2013-01-01 13:46:00,45.3,42.3,29.99,SSW,202,1.4,3.3,89,0.02,,,0.66,WUHU21623XXSP,2013-01-01 18:46:00,
2013-01-01 13:51:00,45.3,42.3,29.99,West,270,0.0,1.7,89,0.02,,,0.66,WUHU21623XXSP,2013-01-01 18:51:00,
2013-01-01 13:56:00,45.3,42.3,29.99,SW,225,0.0,2.7,89,0.02,,,0.66,WUHU21623XXSP,2013-01-01 18:56:00,
2013-01-01 14:01:00,45.5,42.5,30.00,SW,225,1.4,2.7,89,0.02,,,0.66,WUHU21623XXSP,2013-01-01 19:01:00,
2013-01-01 14:06:00,45.3,42.3,30.00,WNW,292,0.0,5.4,89,0.02,,,0.66,WUHU21623XXSP,2013-01-01 19:06:00,
2013-01-01 14:11:00,45.3,42.3,30.00,SSW,202,0.0,5.4,89,0.02,,,0.66,WUHU21623XXSP,2013-01-01 19:11:00,
2013-01-01 14:16:00,45.1,42.1,30.00,NNW,337,0.0,0.0,89,0.02,,,0.66,WUHU21623XXSP,2013-01-01 19:16:00,
2013-01-01 14:21:00,45.3,42.3,30.01,NW,315,0.0,0.0,89,0.00,,,0.66,WUHU21623XXSP,2013-01-01 19:21:00,
2013-01-01 14:26:00,45.3,42.3,30.00,NW,315,0.0,0.0,89,0.00,,,0.66,WUHU21623XXSP,2013-01-01 19:26:00,
2013-01-01 14:31:00,45.1,42.1,30.01,WNW,292,0.0,0.0,89,0.03,,,0.70,WUHU21623XXSP,2013-01-01 19:31:00,
2013-01-01 14:36:00,45.1,42.1,30.01,SW,225,0.0,0.0,89,0.03,,,0.70,WUHU21623XXSP,2013-01-01 19:36:00,
2013-01-01 14:41:00,45.1,42.1,30.01,WNW,292,0.0,0.0,89,0.03,,,0.70,WUHU21623XXSP,2013-01-01 19:41:00,
2013-01-01 14:46:00,45.1,42.1,30.01,West,270,0.0,0.0,89,0.05,,,0.72,WUHU21623XXSP,2013-01-01 19:46:00,
2013-01-01 14:51:00,45.1,42.1,30.01,WNW,292,0.0,0.0,89,0.05,,,0.72,WUHU21623XXSP,2013-01-01 19:51:00,
2013-01-01 14:56:00,45.1,42.1,30.01,NNE,22,0.0,0.0,89,0.05,,,0.72,WUHU21623XXSP,2013-01-01 19:56:00,
2013-01-01 15:01:00,45.1,42.1,30.01,WSW,247,0.0,0.0,89,0.05,,,0.72,WUHU21623XXSP,2013-01-01 20:01:00,
2013-01-01 15:06:00,45.1,42.1,30.01,North,0,0.0,0.0,89,0.08,,,0.74,WUHU21623XXSP,2013-01-01 20:06:00,
2013-01-01 15:11:00,45.1,42.1,30.01,North,0,0.0,0.0,89,0.08,,,0.74,WUHU21623XXSP,2013-01-01 20:11:00,
2013-01-01 15:16:00,45.1,42.1,30.01,North,0,0.0,0.0,89,0.08,,,0.74,WUHU21623XXSP,2013-01-01 20:16:00,
2013-01-01 15:21:00,45.3,42.3,30.01,North,0,0.0,0.0,89,0.10,,,0.76,WUHU21623XXSP,2013-01-01 20:21:00,
2013-01-01 15:26:00,45.3,42.3,30.00,NNE,22,0.0,0.0,89,0.10,,,0.76,WUHU21623XXSP,2013-01-01 20:26:00,
2013-01-01 15:31:00,45.5,42.5,30.01,NNE,22,0.0,0.0,89,0.07,,,0.76,WUHU21623XXSP,2013-01-01 20:31:00,
2013-01-01 15:36:00,45.3,42.3,30.01,NNE,22,0.0,0.0,89,0.07,,,0.76,WUHU21623XXSP,2013-01-01 20:36:00,
2013-01-01 15:41:00,45.3,42.3,30.01,ESE,112,0.0,0.0,89,0.07,,,0.76,WUHU21623XXSP,2013-01-01 20:41:00,
2013-01-01 15:46:00,45.3,42.3,30.01,NE,45,0.0,0.0,89,0.04,,,0.76,WUHU21623XXSP,2013-01-01 20:46:00,
2013-01-01 15:51:00,45.3,42.3,30.00,NNW,337,0.0,1.9,89,0.04,,,0.76,WUHU21623XXSP,2013-01-01 20:51:00,
2013-01-01 15:56:00,45.3,42.3,30.00,ESE,112,0.0,1.9,89,0.07,,,0.78,WUHU21623XXSP,2013-01-01 20:56:00,
2013-01-01 16:01:00,45.3,42.3,30.01,ESE,112,0.0,0.0,89,0.04,,,0.78,WUHU21623XXSP,2013-01-01 21:01:00,
2013-01-01 16:06:00,45.5,42.5,30.01,ESE,112,0.0,0.0,89,0.04,,,0.78,WUHU21623XXSP,2013-01-01 21:06:00,
2013-01-01 16:11:00,45.5,42.5,30.01,ESE,112,0.0,0.0,89,0.00,,,0.00,WUHU21623XXSP,2013-01-01 21:11:00,
2013-01-01 16:16:00,45.7,42.7,30.00,ESE,112,0.0,0.0,89,0.00,,,0.00,WUHU21623XXSP,2013-01-01 21:16:00,
2013-01-01 16:21:00,45.7,42.7,30.00,ESE,112,0.0,0.0,89,0.02,,,0.02,WUHU21623XXSP,2013-01-01 21:21:00,
2013-01-01 16:26:00,45.7,42.7,30.00,East,90,0.0,0.0,89,0.02,,,0.02,WUHU21623XXSP,2013-01-01 21:26:00,
2013-01-01 16:31:00,45.7,42.7,30.01,East,90,0.0,0.0,89,0.02,,,0.02,WUHU21623XXSP,2013-01-01 21:31:00,
2013-01-01 16:36:00,45.7,42.7,30.01,ESE,112,0.0,0.0,89,0.02,,,0.02,WUHU21623XXSP,2013-01-01 21:36:00,
2013-01-01 16:42:00,46.0,43.0,30.01,NE,45,0.0,0.0,89,0.02,,,0.02,WUHU21623XXSP,2013-01-01 21:42:00,
2013-01-01 16:47:00,46.0,43.0,30.01,NE,45,0.0,0.0,89,0.02,,,0.02,WUHU21623XXSP,2013-01-01 21:47:00,
2013-01-01 16:53:00,46.0,43.0,30.01,NNW,337,0.0,0.0,89,0.02,,,0.02,WUHU21623XXSP,2013-01-01 21:53:00,
2013-01-01 16:58:00,46.0,43.0,30.01,NNW,337,0.0,0.0,89,0.02,,,0.02,WUHU21623XXSP,2013-01-01 21:58:00,
2013-01-01 17:03:00,46.0,43.0,30.01,NNW,337,0.0,0.0,89,0.04,,,0.04,WUHU21623XXSP,2013-01-01 22:03:00,
2013-01-01 17:08:00,46.0,43.0,30.01,NNW,337,0.0,0.0,89,0.04,,,0.04,WUHU21623XXSP,2013-01-01 22:08:00,
2013-01-01 17:13:00,45.9,42.9,30.00,NE,45,0.0,0.0,89,0.04,,,0.04,WUHU21623XXSP,2013-01-01 22:13:00,
2013-01-01 17:18:00,46.0,43.0,30.00,NE,45,0.0,0.0,89,0.02,,,0.04,WUHU21623XXSP,2013-01-01 22:18:00,
2013-01-01 17:23:00,45.7,42.7,30.01,NNW,337,0.0,0.0,89,0.02,,,0.04,WUHU21623XXSP,2013-01-01 22:23:00,
2013-01-01 17:29:00,45.7,42.7,30.01,NNW,337,0.0,0.0,89,0.04,,,0.07,WUHU21623XXSP,2013-01-01 22:29:00,
2013-01-01 17:34:00,45.7,42.7,30.01,NNW,337,0.0,0.0,89,0.04,,,0.07,WUHU21623XXSP,2013-01-01 22:34:00,
2013-01-01 17:39:00,45.5,42.5,30.01,NNW,337,0.0,0.0,89,0.04,,,0.07,WUHU21623XXSP,2013-01-01 22:39:00,
2013-01-01 17:44:00,45.5,42.5,30.01,North,0,0.0,0.0,89,0.04,,,0.07,WUHU21623XXSP,2013-01-01 22:44:00,
2013-01-01 17:49:00,45.5,42.5,30.01,North,0,0.0,0.0,89,0.04,,,0.07,WUHU21623XXSP,2013-01-01 22:49:00,
2013-01-01 17:54:00,45.5,42.5,30.02,North,0,0.0,0.0,89,0.04,,,0.07,WUHU21623XXSP,2013-01-01 22:54:00,
2013-01-01 17:59:00,45.5,42.5,30.02,North,0,0.0,0.0,89,0.04,,,0.07,WUHU21623XXSP,2013-01-01 22:59:00,
2013-01-01 18:04:00,45.5,42.5,30.02,North,0,0.0,0.0,89,0.04,,,0.09,WUHU21623XXSP,2013-01-01 23:04:00,
2013-01-01 18:09:00,45.5,42.5,30.02,ESE,112,0.0,0.0,89,0.04,,,0.09,WUHU21623XXSP,2013-01-01 23:09:00,
2013-01-01 18:15:00,45.3,42.3,30.02,ENE,67,0.0,0.0,89,0.04,,,0.09,WUHU21623XXSP,2013-01-01 23:15:00,
2013-01-01 18:20:00,45.3,42.3,30.02,ENE,67,0.0,0.0,89,0.04,,,0.09,WUHU21623XXSP,2013-01-01 23:20:00,
2013-01-01 18:25:00,45.3,42.3,30.02,NNE,22,0.0,0.0,89,0.04,,,0.09,WUHU21623XXSP,2013-01-01 23:25:00,
2013-01-01 18:30:00,45.1,42.1,30.02,NNE,22,0.0,0.0,89,0.04,,,0.11,WUHU21623XXSP,2013-01-01 23:30:00,
2013-01-01 18:35:00,45.1,42.1,30.02,NNE,22,0.0,0.0,89,0.04,,,0.11,WUHU21623XXSP,2013-01-01 23:35:00,
2013-01-01 18:40:00,45.1,42.1,30.03,NE,45,0.0,0.0,89,0.04,,,0.11,WUHU21623XXSP,2013-01-01 23:40:00,
2013-01-01 18:45:00,45.1,42.1,30.02,ESE,112,0.0,0.0,89,0.07,,,0.13,WUHU21623XXSP,2013-01-01 23:45:00,
2013-01-01 18:50:00,45.1,42.1,30.02,ESE,112,0.0,0.0,89,0.07,,,0.13,WUHU21623XXSP,2013-01-01 23:50:00,
2013-01-01 18:55:00,45.0,42.0,30.03,NNE,22,0.0,0.0,89,0.07,,,0.13,WUHU21623XXSP,2013-01-01 23:55:00,
2013-01-01 19:00:00,45.0,42.0,30.03,NNE,22,0.0,0.0,89,0.07,,,0.13,WUHU21623XXSP,2013-01-02 00:00:00,
2013-01-01 19:05:00,45.0,42.0,30.02,NE,45,0.0,0.0,89,0.04,,,0.13,WUHU21623XXSP,2013-01-02 00:05:00,
2013-01-01 19:10:00,45.0,42.0,30.02,ENE,67,0.0,0.0,89,0.04,,,0.13,WUHU21623XXSP,2013-01-02 00:10:00,
2013-01-01 19:15:00,44.8,41.8,30.02,ENE,67,0.0,0.0,89,0.04,,,0.13,WUHU21623XXSP,2013-01-02 00:15:00,
2013-01-01 19:20:00,44.8,41.8,30.02,East,90,0.0,0.0,89,0.04,,,0.13,WUHU21623XXSP,2013-01-02 00:20:00,
2013-01-01 19:25:00,45.0,42.0,30.02,SE,135,0.0,0.0,89,0.04,,,0.13,WUHU21623XXSP,2013-01-02 00:25:00,
2013-01-01 19:30:00,45.0,42.0,30.02,SE,135,0.0,0.0,89,0.04,,,0.15,WUHU21623XXSP,2013-01-02 00:30:00,
2013-01-01 19:35:00,44.6,41.6,30.02,ESE,112,0.0,0.0,89,0.04,,,0.15,WUHU21623XXSP,2013-01-02 00:35:00,
2013-01-01 19:40:00,44.4,41.4,30.02,ESE,112,0.0,0.0,89,0.04,,,0.15,WUHU21623XXSP,2013-01-02 00:40:00,
2013-01-01 19:45:00,44.4,41.4,30.02,ENE,67,0.0,0.0,89,0.02,,,0.15,WUHU21623XXSP,2013-01-02 00:45:00,
2013-01-01 19:50:00,44.4,41.4,30.02,NNE,22,0.0,0.0,89,0.02,,,0.15,WUHU21623XXSP,2013-01-02 00:50:00,
2013-01-01 19:55:00,44.4,41.4,30.02,NNE,22,0.0,0.0,89,0.02,,,0.15,WUHU21623XXSP,2013-01-02 00:55:00,
2013-01-01 20:00:00,44.4,41.4,30.02,NNE,22,0.0,0.0,89,0.02,,,0.15,WUHU21623XXSP,2013-01-02 01:00:00,
2013-01-01 20:05:00,44.4,41.4,30.02,East,90,0.0,0.0,89,0.02,,,0.15,WUHU21623XXSP,2013-01-02 01:05:00,
2013-01-01 20:10:00,44.4,41.4,30.02,East,90,0.0,0.0,89,0.02,,,0.15,WUHU21623XXSP,2013-01-02 01:10:00,
2013-01-01 20:15:00,44.4,41.4,30.02,ESE,112,0.0,0.0,89,0.02,,,0.15,WUHU21623XXSP,2013-01-02 01:15:00,
2013-01-01 20:20:00,44.2,41.2,30.02,ESE,112,0.0,0.0,89,0.04,,,0.17,WUHU21623XXSP,2013-01-02 01:20:00,
2013-01-01 20:25:00,44.2,41.2,30.02,ESE,112,0.0,0.0,89,0.04,,,0.17,WUHU21623XXSP,2013-01-02 01:25:00,
2013-01-01 20:30:00,44.2,41.2,30.02,SSE,157,0.0,0.0,89,0.02,,,0.17,WUHU21623XXSP,2013-01-02 01:30:00,
2013-01-01 20:35:00,44.2,41.2,30.02,NNE,22,0.0,0.0,89,0.02,,,0.17,WUHU21623XXSP,2013-01-02 01:35:00,
2013-01-01 20:40:00,44.2,41.2,30.02,SE,135,0.0,0.0,89,0.04,,,0.20,WUHU21623XXSP,2013-01-02 01:40:00,
2013-01-01 20:45:00,44.2,41.2,30.02,ESE,112,0.0,0.0,89,0.04,,,0.20,WUHU21623XXSP,2013-01-02 01:45:00,
2013-01-01 20:50:00,44.1,41.1,30.01,NNE,22,0.0,0.0,89,0.04,,,0.20,WUHU21623XXSP,2013-01-02 01:50:00,
2013-01-01 20:55:00,43.9,40.9,30.02,North,0,0.0,0.0,89,0.04,,,0.20,WUHU21623XXSP,2013-01-02 01:55:00,
2013-01-01 21:00:00,43.9,40.9,30.03,NNW,337,0.0,0.0,89,0.04,,,0.20,WUHU21623XXSP,2013-01-02 02:00:00,
2013-01-01 21:05:00,43.9,40.9,30.03,NNW,337,0.0,0.0,89,0.04,,,0.20,WUHU21623XXSP,2013-01-02 02:05:00,
2013-01-01 21:10:00,43.9,40.9,30.02,ESE,112,0.0,0.0,89,0.04,,,0.20,WUHU21623XXSP,2013-01-02 02:10:00,
2013-01-01 21:16:00,43.9,40.9,30.03,ENE,67,0.0,0.0,89,0.04,,,0.20,WUHU21623XXSP,2013-01-02 02:16:00,
2013-01-01 21:21:00,43.9,40.9,30.03,ENE,67,0.0,0.0,89,0.02,,,0.20,WUHU21623XXSP,2013-01-02 02:21:00,
2013-01-01 21:26:00,43.9,40.9,30.02,East,90,0.0,0.0,89,0.02,,,0.20,WUHU21623XXSP,2013-01-02 02:26:00,
2013-01-01 21:31:00,43.7,40.7,30.03,East,90,0.0,0.0,89,0.04,,,0.22,WUHU21623XXSP,2013-01-02 02:31:00,
2013-01-01 21:36:00,43.7,40.7,30.02,SE,135,0.0,0.0,89,0.02,,,0.22,WUHU21623XXSP,2013-01-02 02:36:00,
2013-01-01 21:41:00,43.7,40.7,30.02,ENE,67,0.0,0.0,89,0.02,,,0.22,WUHU21623XXSP,2013-01-02 02:41:00,
2013-01-01 21:46:00,43.7,40.7,30.02,East,90,0.0,0.0,89,0.02,,,0.22,WUHU21623XXSP,2013-01-02 02:46:00,
2013-01-01 21:51:00,43.5,40.5,30.02,SE,135,0.0,0.0,89,0.02,,,0.22,WUHU21623XXSP,2013-01-02 02:51:00,
2013-01-01 21:56:00,43.5,40.5,30.01,ESE,112,0.0,0.0,89,0.02,,,0.22,WUHU21623XXSP,2013-01-02 02:56:00,
2013-01-01 22:01:00,43.5,40.5,30.01,SE,135,0.0,0.0,89,0.02,,,0.22,WUHU21623XXSP,2013-01-02 03:01:00,
2013-01-01 22:06:00,43.9,40.9,30.01,ESE,112,0.0,0.0,89,0.02,,,0.22,WUHU21623XXSP,2013-01-02 03:06:00,
2013-01-01 22:11:00,43.9,40.9,30.02,SE,135,0.0,0.0,89,0.04,,,0.24,WUHU21623XXSP,2013-01-02 03:11:00,
2013-01-01 22:16:00,43.9,40.9,30.01,ESE,112,0.0,0.0,89,0.04,,,0.24,WUHU21623XXSP,2013-01-02 03:16:00,
2013-01-01 22:21:00,44.1,41.1,30.01,ENE,67,0.0,0.0,89,0.04,,,0.24,WUHU21623XXSP,2013-01-02 03:21:00,
2013-01-01 22:26:00,44.1,41.1,30.02,North,0,0.0,0.0,89,0.04,,,0.24,WUHU21623XXSP,2013-01-02 03:26:00,
2013-01-01 22:31:00,43.9,40.9,30.02,North,0,0.0,0.0,89,0.02,,,0.24,WUHU21623XXSP,2013-01-02 03:31:00,
2013-01-01 22:36:00,43.7,40.7,30.03,NNW,337,0.0,0.0,89,0.02,,,0.24,WUHU21623XXSP,2013-01-02 03:36:00,
2013-01-01 22:41:00,43.7,40.7,30.03,NNW,337,0.0,0.0,89,0.02,,,0.24,WUHU21623XXSP,2013-01-02 03:41:00,
2013-01-01 22:46:00,43.7,40.7,30.03,NNW,337,0.0,0.0,89,0.02,,,0.24,WUHU21623XXSP,2013-01-02 03:46:00,
2013-01-01 22:51:00,43.9,40.9,30.04,NNW,337,0.0,0.0,89,0.02,,,0.24,WUHU21623XXSP,2013-01-02 03:51:00,
2013-01-01 22:56:00,43.9,40.9,30.04,NNW,337,0.0,0.0,89,0.02,,,0.24,WUHU21623XXSP,2013-01-02 03:56:00,
2013-01-01 23:01:00,44.1,41.1,30.04,North,0,1.7,1.9,89,0.02,,,0.24,WUHU21623XXSP,2013-01-02 04:01:00,
2013-01-01 23:06:00,44.1,41.1,30.04,North,0,0.0,1.9,89,0.02,,,0.24,WUHU21623XXSP,2013-01-02 04:06:00,
2013-01-01 23:11:00,44.1,41.1,30.03,NNW,337,0.0,0.0,89,0.00,,,0.24,WUHU21623XXSP,2013-01-02 04:11:00,
2013-01-01 23:16:00,43.9,40.9,30.04,NNW,337,0.0,0.0,89,0.00,,,0.24,WUHU21623XXSP,2013-01-02 04:16:00,
2013-01-01 23:21:00,43.9,40.9,30.04,NNW,337,0.9,1.0,89,0.00,,,0.24,WUHU21623XXSP,2013-01-02 04:21:00,
2013-01-01 23:26:00,43.5,40.5,30.04,North,0,1.4,4.4,89,0.00,,,0.24,WUHU21623XXSP,2013-01-02 04:26:00,
2013-01-01 23:31:00,42.6,39.6,30.04,NW,315,0.0,4.4,89,0.00,,,0.24,WUHU21623XXSP,2013-01-02 04:31:00,
2013-01-01 23:36:00,42.6,39.6,30.05,NW,315,1.4,3.0,89,0.00,,,0.24,WUHU21623XXSP,2013-01-02 04:36:00,
2013-01-01 23:41:00,42.1,39.1,30.05,North,0,2.6,3.0,89,0.00,,,0.24,WUHU21623XXSP,2013-01-02 04:41:00,
2013-01-01 23:46:00,41.5,38.5,30.05,WNW,292,0.0,4.4,89,0.00,,,0.24,WUHU21623XXSP,2013-01-02 04:46:00,
2013-01-01 23:51:00,41.5,38.5,30.05,North,0,0.0,4.4,89,0.00,,,0.24,WUHU21623XXSP,2013-01-02 04:51:00,
2013-01-01 23:56:00,41.4,38.4,30.06,NNW,337,2.3,2.7,89,0.00,,,0.24,WUHU21623XXSP,2013-01-02 04:56:00,